sensor_id;sensor_type;location;lat;lon;timestamp;P1;durP1;ratioP1;P2;durP2;ratioP2
44000;SDS011;29660;42.892;24.710;2023-02-18T00:02:18;92.93;;;58.17;;
44000;SDS011;29660;42.892;24.710;2023-02-18T00:07:20;106.18;;;64.13;;
44000;SDS011;29660;42.892;24.710;2023-02-18T00:12:22;100.38;;;57.08;;
44000;SDS011;29660;42.892;24.710;2023-02-18T00:17:24;83.00;;;50.50;;
44000;SDS011;29660;42.892;24.710;2023-02-18T00:22:26;58.42;;;36.05;;
44000;SDS011;29660;42.892;24.710;2023-02-18T00:27:28;119.78;;;70.53;;
44000;SDS011;29660;42.892;24.710;2023-02-18T00:32:30;89.05;;;55.22;;
44000;SDS011;29660;42.892;24.710;2023-02-18T00:37:34;85.10;;;53.28;;
44000;SDS011;29660;42.892;24.710;2023-02-18T00:42:36;82.78;;;48.42;;
44000;SDS011;29660;42.892;24.710;2023-02-18T00:47:38;67.10;;;42.85;;
44000;SDS011;29660;42.892;24.710;2023-02-18T00:52:39;65.28;;;41.92;;
44000;SDS011;29660;42.892;24.710;2023-02-18T00:57:41;52.72;;;35.53;;
44000;SDS011;29660;42.892;24.710;2023-02-18T01:02:43;67.13;;;41.20;;
44000;SDS011;29660;42.892;24.710;2023-02-18T01:07:45;78.03;;;46.55;;
44000;SDS011;29660;42.892;24.710;2023-02-18T01:12:48;51.42;;;32.08;;
44000;SDS011;29660;42.892;24.710;2023-02-18T01:17:50;81.15;;;48.75;;
44000;SDS011;29660;42.892;24.710;2023-02-18T01:22:52;154.10;;;90.97;;
44000;SDS011;29660;42.892;24.710;2023-02-18T01:27:55;91.75;;;52.72;;
44000;SDS011;29660;42.892;24.710;2023-02-18T01:32:57;74.75;;;44.83;;
44000;SDS011;29660;42.892;24.710;2023-02-18T01:37:59;93.72;;;54.90;;
44000;SDS011;29660;42.892;24.710;2023-02-18T01:43:01;107.22;;;65.70;;
44000;SDS011;29660;42.892;24.710;2023-02-18T01:48:19;109.65;;;63.58;;
44000;SDS011;29660;42.892;24.710;2023-02-18T01:53:26;94.80;;;58.70;;
44000;SDS011;29660;42.892;24.710;2023-02-18T01:58:31;68.28;;;38.53;;
44000;SDS011;29660;42.892;24.710;2023-02-18T02:03:35;85.72;;;48.10;;
44000;SDS011;29660;42.892;24.710;2023-02-18T02:08:38;73.55;;;39.72;;
44000;SDS011;29660;42.892;24.710;2023-02-18T02:24:27;47.40;;;30.20;;
44000;SDS011;29660;42.892;24.710;2023-02-18T02:35:03;41.97;;;25.90;;
44000;SDS011;29660;42.892;24.710;2023-02-18T02:40:23;35.95;;;24.13;;
44000;SDS011;29660;42.892;24.710;2023-02-18T02:45:57;61.58;;;39.22;;
44000;SDS011;29660;42.892;24.710;2023-02-18T02:51:27;97.00;;;57.55;;
44000;SDS011;29660;42.892;24.710;2023-02-18T02:56:33;69.22;;;43.20;;
44000;SDS011;29660;42.892;24.710;2023-02-18T03:02:00;51.25;;;29.55;;
44000;SDS011;29660;42.892;24.710;2023-02-18T03:07:02;51.50;;;32.72;;
44000;SDS011;29660;42.892;24.710;2023-02-18T03:17:35;43.40;;;29.60;;
44000;SDS011;29660;42.892;24.710;2023-02-18T03:22:43;42.05;;;29.52;;
44000;SDS011;29660;42.892;24.710;2023-02-18T03:28:04;47.80;;;29.95;;
44000;SDS011;29660;42.892;24.710;2023-02-18T03:33:10;110.28;;;51.53;;
44000;SDS011;29660;42.892;24.710;2023-02-18T03:38:19;156.70;;;66.70;;
44000;SDS011;29660;42.892;24.710;2023-02-18T03:43:27;109.75;;;52.67;;
44000;SDS011;29660;42.892;24.710;2023-02-18T03:48:29;90.80;;;48.17;;
44000;SDS011;29660;42.892;24.710;2023-02-18T03:53:31;55.72;;;34.10;;
44000;SDS011;29660;42.892;24.710;2023-02-18T03:58:33;58.83;;;37.08;;
44000;SDS011;29660;42.892;24.710;2023-02-18T04:03:35;54.55;;;37.17;;
44000;SDS011;29660;42.892;24.710;2023-02-18T04:08:37;60.15;;;39.60;;
44000;SDS011;29660;42.892;24.710;2023-02-18T04:13:39;56.20;;;36.47;;
44000;SDS011;29660;42.892;24.710;2023-02-18T04:18:41;59.92;;;38.40;;
44000;SDS011;29660;42.892;24.710;2023-02-18T04:23:45;63.38;;;35.60;;
44000;SDS011;29660;42.892;24.710;2023-02-18T04:28:47;41.97;;;26.55;;
44000;SDS011;29660;42.892;24.710;2023-02-18T04:33:49;39.17;;;25.33;;
44000;SDS011;29660;42.892;24.710;2023-02-18T04:38:51;48.28;;;29.10;;
44000;SDS011;29660;42.892;24.710;2023-02-18T04:43:53;49.38;;;30.77;;
44000;SDS011;29660;42.892;24.710;2023-02-18T04:48:55;57.80;;;34.13;;
44000;SDS011;29660;42.892;24.710;2023-02-18T04:53:57;62.17;;;38.67;;
44000;SDS011;29660;42.892;24.710;2023-02-18T04:58:59;103.20;;;62.58;;
44000;SDS011;29660;42.892;24.710;2023-02-18T05:04:00;100.05;;;63.63;;
44000;SDS011;29660;42.892;24.710;2023-02-18T05:09:03;119.63;;;76.38;;
44000;SDS011;29660;42.892;24.710;2023-02-18T05:14:05;107.00;;;69.47;;
44000;SDS011;29660;42.892;24.710;2023-02-18T05:19:07;116.10;;;73.05;;
44000;SDS011;29660;42.892;24.710;2023-02-18T05:24:10;123.45;;;79.35;;
44000;SDS011;29660;42.892;24.710;2023-02-18T05:29:12;133.25;;;84.05;;
44000;SDS011;29660;42.892;24.710;2023-02-18T05:34:14;110.93;;;68.13;;
44000;SDS011;29660;42.892;24.710;2023-02-18T05:39:16;84.55;;;52.47;;
44000;SDS011;29660;42.892;24.710;2023-02-18T05:44:18;406.10;;;273.48;;
44000;SDS011;29660;42.892;24.710;2023-02-18T05:49:33;101.22;;;65.60;;
44000;SDS011;29660;42.892;24.710;2023-02-18T05:54:36;98.75;;;65.88;;
44000;SDS011;29660;42.892;24.710;2023-02-18T05:59:39;114.32;;;77.78;;
44000;SDS011;29660;42.892;24.710;2023-02-18T06:04:41;154.88;;;98.15;;
44000;SDS011;29660;42.892;24.710;2023-02-18T06:09:43;160.30;;;105.35;;
44000;SDS011;29660;42.892;24.710;2023-02-18T06:14:45;171.00;;;118.78;;
44000;SDS011;29660;42.892;24.710;2023-02-18T06:19:47;132.32;;;91.35;;
44000;SDS011;29660;42.892;24.710;2023-02-18T06:24:50;153.85;;;104.60;;
44000;SDS011;29660;42.892;24.710;2023-02-18T06:29:53;148.20;;;105.80;;
44000;SDS011;29660;42.892;24.710;2023-02-18T06:34:55;143.80;;;102.63;;
44000;SDS011;29660;42.892;24.710;2023-02-18T06:39:56;150.68;;;107.38;;
44000;SDS011;29660;42.892;24.710;2023-02-18T06:44:59;157.18;;;111.75;;
44000;SDS011;29660;42.892;24.710;2023-02-18T06:50:00;165.93;;;121.45;;
44000;SDS011;29660;42.892;24.710;2023-02-18T06:55:06;171.80;;;120.95;;
44000;SDS011;29660;42.892;24.710;2023-02-18T07:00:10;164.35;;;119.15;;
44000;SDS011;29660;42.892;24.710;2023-02-18T07:05:12;182.07;;;129.52;;
44000;SDS011;29660;42.892;24.710;2023-02-18T07:10:14;187.65;;;135.57;;
44000;SDS011;29660;42.892;24.710;2023-02-18T07:15:16;186.10;;;136.30;;
44000;SDS011;29660;42.892;24.710;2023-02-18T07:20:19;241.95;;;174.02;;
44000;SDS011;29660;42.892;24.710;2023-02-18T07:25:22;243.27;;;189.85;;
44000;SDS011;29660;42.892;24.710;2023-02-18T07:30:24;305.63;;;229.50;;
44000;SDS011;29660;42.892;24.710;2023-02-18T07:35:26;326.38;;;249.93;;
44000;SDS011;29660;42.892;24.710;2023-02-18T07:40:28;377.98;;;291.05;;
44000;SDS011;29660;42.892;24.710;2023-02-18T07:45:30;303.95;;;235.05;;
44000;SDS011;29660;42.892;24.710;2023-02-18T07:50:32;255.98;;;198.45;;
44000;SDS011;29660;42.892;24.710;2023-02-18T07:55:37;316.50;;;244.40;;
44000;SDS011;29660;42.892;24.710;2023-02-18T08:00:51;318.80;;;257.17;;
44000;SDS011;29660;42.892;24.710;2023-02-18T08:05:55;245.63;;;190.80;;
44000;SDS011;29660;42.892;24.710;2023-02-18T08:10:58;245.02;;;196.48;;
44000;SDS011;29660;42.892;24.710;2023-02-18T08:16:18;242.93;;;190.32;;
44000;SDS011;29660;42.892;24.710;2023-02-18T08:21:22;219.95;;;174.15;;
44000;SDS011;29660;42.892;24.710;2023-02-18T08:26:25;216.00;;;171.38;;
44000;SDS011;29660;42.892;24.710;2023-02-18T08:31:28;180.93;;;139.38;;
44000;SDS011;29660;42.892;24.710;2023-02-18T08:36:31;191.73;;;148.50;;
44000;SDS011;29660;42.892;24.710;2023-02-18T08:41:33;189.55;;;143.35;;
44000;SDS011;29660;42.892;24.710;2023-02-18T08:46:35;140.18;;;106.68;;
44000;SDS011;29660;42.892;24.710;2023-02-18T08:51:37;23.40;;;17.20;;
44000;SDS011;29660;42.892;24.710;2023-02-18T08:56:39;19.40;;;14.10;;
44000;SDS011;29660;42.892;24.710;2023-02-18T09:01:41;26.33;;;19.77;;
44000;SDS011;29660;42.892;24.710;2023-02-18T09:06:43;16.80;;;12.30;;
44000;SDS011;29660;42.892;24.710;2023-02-18T09:11:47;9.63;;;6.63;;
44000;SDS011;29660;42.892;24.710;2023-02-18T09:16:49;18.70;;;11.85;;
44000;SDS011;29660;42.892;24.710;2023-02-18T09:21:51;11.00;;;5.20;;
44000;SDS011;29660;42.892;24.710;2023-02-18T09:26:53;12.55;;;10.02;;
44000;SDS011;29660;42.892;24.710;2023-02-18T09:31:58;26.02;;;16.13;;
44000;SDS011;29660;42.892;24.710;2023-02-18T09:37:02;21.67;;;12.98;;
44000;SDS011;29660;42.892;24.710;2023-02-18T09:42:06;15.05;;;10.40;;
44000;SDS011;29660;42.892;24.710;2023-02-18T09:47:15;15.07;;;8.23;;
44000;SDS011;29660;42.892;24.710;2023-02-18T09:52:34;27.80;;;12.60;;
44000;SDS011;29660;42.892;24.710;2023-02-18T09:58:39;12.73;;;8.55;;
44000;SDS011;29660;42.892;24.710;2023-02-18T10:03:21;12.88;;;8.70;;
44000;SDS011;29660;42.892;24.710;2023-02-18T10:08:31;12.82;;;8.25;;
44000;SDS011;29660;42.892;24.710;2023-02-18T10:13:37;4.18;;;2.95;;
44000;SDS011;29660;42.892;24.710;2023-02-18T10:18:40;6.45;;;3.38;;
44000;SDS011;29660;42.892;24.710;2023-02-18T10:23:52;5.18;;;3.15;;
44000;SDS011;29660;42.892;24.710;2023-02-18T10:29:19;3.42;;;2.47;;
44000;SDS011;29660;42.892;24.710;2023-02-18T10:34:35;6.05;;;2.78;;
44000;SDS011;29660;42.892;24.710;2023-02-18T10:50:47;6.50;;;3.08;;
44000;SDS011;29660;42.892;24.710;2023-02-18T10:55:49;12.07;;;8.48;;
44000;SDS011;29660;42.892;24.710;2023-02-18T11:00:54;5.95;;;3.63;;
44000;SDS011;29660;42.892;24.710;2023-02-18T11:05:57;8.93;;;5.55;;
44000;SDS011;29660;42.892;24.710;2023-02-18T11:10:59;9.93;;;5.25;;
44000;SDS011;29660;42.892;24.710;2023-02-18T11:16:14;15.65;;;7.15;;
44000;SDS011;29660;42.892;24.710;2023-02-18T11:26:29;5.90;;;3.30;;
44000;SDS011;29660;42.892;24.710;2023-02-18T11:31:37;5.43;;;3.58;;
44000;SDS011;29660;42.892;24.710;2023-02-18T11:36:45;5.60;;;3.80;;
44000;SDS011;29660;42.892;24.710;2023-02-18T11:47:05;6.30;;;3.65;;
44000;SDS011;29660;42.892;24.710;2023-02-18T11:57:21;7.00;;;3.30;;
44000;SDS011;29660;42.892;24.710;2023-02-18T12:13:06;7.88;;;5.13;;
44000;SDS011;29660;42.892;24.710;2023-02-18T12:23:35;8.48;;;5.18;;
44000;SDS011;29660;42.892;24.710;2023-02-18T12:29:08;5.45;;;4.07;;
44000;SDS011;29660;42.892;24.710;2023-02-18T12:34:30;7.03;;;5.20;;
44000;SDS011;29660;42.892;24.710;2023-02-18T13:06:05;29.35;;;23.67;;
44000;SDS011;29660;42.892;24.710;2023-02-18T13:16:19;18.20;;;14.30;;
44000;SDS011;29660;42.892;24.710;2023-02-18T13:21:24;8.00;;;6.57;;
44000;SDS011;29660;42.892;24.710;2023-02-18T13:26:31;7.07;;;5.00;;
44000;SDS011;29660;42.892;24.710;2023-02-18T13:47:44;10.35;;;7.80;;
44000;SDS011;29660;42.892;24.710;2023-02-18T13:52:58;13.55;;;8.02;;
44000;SDS011;29660;42.892;24.710;2023-02-18T13:58:14;15.10;;;10.20;;
44000;SDS011;29660;42.892;24.710;2023-02-18T14:03:30;18.90;;;13.65;;
44000;SDS011;29660;42.892;24.710;2023-02-18T14:08:35;15.60;;;11.10;;
44000;SDS011;29660;42.892;24.710;2023-02-18T14:13:54;12.35;;;6.68;;
44000;SDS011;29660;42.892;24.710;2023-02-18T14:19:27;8.20;;;5.65;;
44000;SDS011;29660;42.892;24.710;2023-02-18T14:24:46;8.43;;;5.70;;
44000;SDS011;29660;42.892;24.710;2023-02-18T14:29:50;8.20;;;5.65;;
44000;SDS011;29660;42.892;24.710;2023-02-18T14:35:03;14.15;;;7.75;;
44000;SDS011;29660;42.892;24.710;2023-02-18T14:40:27;12.77;;;7.90;;
44000;SDS011;29660;42.892;24.710;2023-02-18T14:51:01;12.02;;;7.47;;
44000;SDS011;29660;42.892;24.710;2023-02-18T14:56:03;15.52;;;6.07;;
44000;SDS011;29660;42.892;24.710;2023-02-18T15:01:19;10.75;;;6.50;;
44000;SDS011;29660;42.892;24.710;2023-02-18T15:06:25;10.00;;;5.82;;
44000;SDS011;29660;42.892;24.710;2023-02-18T15:11:36;18.63;;;11.63;;
44000;SDS011;29660;42.892;24.710;2023-02-18T15:16:41;9.45;;;6.88;;
44000;SDS011;29660;42.892;24.710;2023-02-18T15:21:46;24.42;;;18.52;;
44000;SDS011;29660;42.892;24.710;2023-02-18T15:26:50;16.20;;;11.85;;
44000;SDS011;29660;42.892;24.710;2023-02-18T15:31:54;12.68;;;9.25;;
44000;SDS011;29660;42.892;24.710;2023-02-18T15:37:02;12.30;;;10.65;;
44000;SDS011;29660;42.892;24.710;2023-02-18T15:47:14;13.23;;;8.52;;
44000;SDS011;29660;42.892;24.710;2023-02-18T15:52:25;25.95;;;17.83;;
44000;SDS011;29660;42.892;24.710;2023-02-18T15:57:31;18.52;;;13.63;;
44000;SDS011;29660;42.892;24.710;2023-02-18T16:02:34;66.85;;;48.60;;
44000;SDS011;29660;42.892;24.710;2023-02-18T16:07:37;39.13;;;28.58;;
44000;SDS011;29660;42.892;24.710;2023-02-18T16:12:52;154.93;;;124.32;;
44000;SDS011;29660;42.892;24.710;2023-02-18T16:17:55;86.93;;;69.78;;
44000;SDS011;29660;42.892;24.710;2023-02-18T16:23:01;101.88;;;70.90;;
44000;SDS011;29660;42.892;24.710;2023-02-18T16:28:06;111.07;;;81.95;;
44000;SDS011;29660;42.892;24.710;2023-02-18T16:33:14;151.55;;;114.53;;
44000;SDS011;29660;42.892;24.710;2023-02-18T16:38:19;128.82;;;103.35;;
44000;SDS011;29660;42.892;24.710;2023-02-18T16:43:26;83.50;;;65.28;;
44000;SDS011;29660;42.892;24.710;2023-02-18T16:48:36;105.68;;;82.22;;
44000;SDS011;29660;42.892;24.710;2023-02-18T16:53:44;129.00;;;102.65;;
44000;SDS011;29660;42.892;24.710;2023-02-18T16:58:46;131.90;;;99.95;;
44000;SDS011;29660;42.892;24.710;2023-02-18T17:03:48;120.05;;;94.60;;
44000;SDS011;29660;42.892;24.710;2023-02-18T17:08:51;114.50;;;87.22;;
44000;SDS011;29660;42.892;24.710;2023-02-18T17:13:53;105.10;;;78.15;;
44000;SDS011;29660;42.892;24.710;2023-02-18T17:18:56;104.43;;;82.85;;
44000;SDS011;29660;42.892;24.710;2023-02-18T17:23:58;96.25;;;68.45;;
44000;SDS011;29660;42.892;24.710;2023-02-18T17:28:59;234.40;;;157.05;;
44000;SDS011;29660;42.892;24.710;2023-02-18T17:34:05;197.20;;;140.05;;
44000;SDS011;29660;42.892;24.710;2023-02-18T17:39:13;129.05;;;93.50;;
44000;SDS011;29660;42.892;24.710;2023-02-18T17:44:19;60.72;;;46.30;;
44000;SDS011;29660;42.892;24.710;2023-02-18T17:49:22;65.88;;;47.13;;
44000;SDS011;29660;42.892;24.710;2023-02-18T17:54:24;154.25;;;102.75;;
44000;SDS011;29660;42.892;24.710;2023-02-18T17:59:28;62.60;;;44.38;;
44000;SDS011;29660;42.892;24.710;2023-02-18T18:04:30;57.97;;;40.40;;
44000;SDS011;29660;42.892;24.710;2023-02-18T18:09:33;86.68;;;59.58;;
44000;SDS011;29660;42.892;24.710;2023-02-18T18:14:34;128.13;;;84.53;;
44000;SDS011;29660;42.892;24.710;2023-02-18T18:19:36;127.95;;;84.78;;
44000;SDS011;29660;42.892;24.710;2023-02-18T18:24:38;140.93;;;96.30;;
44000;SDS011;29660;42.892;24.710;2023-02-18T18:29:40;204.30;;;136.00;;
44000;SDS011;29660;42.892;24.710;2023-02-18T18:34:42;205.20;;;136.93;;
44000;SDS011;29660;42.892;24.710;2023-02-18T18:39:44;168.95;;;119.45;;
44000;SDS011;29660;42.892;24.710;2023-02-18T18:44:47;204.23;;;140.65;;
44000;SDS011;29660;42.892;24.710;2023-02-18T18:49:49;175.82;;;131.20;;
44000;SDS011;29660;42.892;24.710;2023-02-18T18:54:51;164.50;;;122.28;;
44000;SDS011;29660;42.892;24.710;2023-02-18T18:59:53;152.50;;;112.90;;
44000;SDS011;29660;42.892;24.710;2023-02-18T19:04:55;140.05;;;103.60;;
44000;SDS011;29660;42.892;24.710;2023-02-18T19:09:57;118.05;;;84.05;;
44000;SDS011;29660;42.892;24.710;2023-02-18T19:14:59;205.02;;;133.55;;
44000;SDS011;29660;42.892;24.710;2023-02-18T19:20:01;146.00;;;105.28;;
44000;SDS011;29660;42.892;24.710;2023-02-18T19:25:03;182.52;;;119.88;;
44000;SDS011;29660;42.892;24.710;2023-02-18T19:30:06;162.18;;;117.68;;
44000;SDS011;29660;42.892;24.710;2023-02-18T19:35:09;183.85;;;132.95;;
44000;SDS011;29660;42.892;24.710;2023-02-18T19:40:12;146.95;;;104.60;;
44000;SDS011;29660;42.892;24.710;2023-02-18T19:45:18;157.25;;;113.50;;
44000;SDS011;29660;42.892;24.710;2023-02-18T19:50:22;115.97;;;79.35;;
44000;SDS011;29660;42.892;24.710;2023-02-18T19:55:25;88.75;;;64.95;;
44000;SDS011;29660;42.892;24.710;2023-02-18T20:00:27;115.82;;;83.63;;
44000;SDS011;29660;42.892;24.710;2023-02-18T20:05:29;94.18;;;66.53;;
44000;SDS011;29660;42.892;24.710;2023-02-18T20:10:31;213.48;;;157.98;;
44000;SDS011;29660;42.892;24.710;2023-02-18T20:15:33;145.85;;;105.03;;
44000;SDS011;29660;42.892;24.710;2023-02-18T20:20:35;127.65;;;92.03;;
44000;SDS011;29660;42.892;24.710;2023-02-18T20:25:37;107.38;;;74.25;;
44000;SDS011;29660;42.892;24.710;2023-02-18T20:30:39;77.10;;;56.70;;
44000;SDS011;29660;42.892;24.710;2023-02-18T20:35:41;87.28;;;61.40;;
44000;SDS011;29660;42.892;24.710;2023-02-18T20:40:43;91.55;;;66.20;;
44000;SDS011;29660;42.892;24.710;2023-02-18T20:45:45;109.32;;;77.38;;
44000;SDS011;29660;42.892;24.710;2023-02-18T20:50:47;93.97;;;66.70;;
44000;SDS011;29660;42.892;24.710;2023-02-18T20:55:49;118.43;;;85.68;;
44000;SDS011;29660;42.892;24.710;2023-02-18T21:00:58;96.53;;;70.15;;
44000;SDS011;29660;42.892;24.710;2023-02-18T21:06:08;104.03;;;68.90;;
44000;SDS011;29660;42.892;24.710;2023-02-18T21:11:22;81.43;;;55.25;;
44000;SDS011;29660;42.892;24.710;2023-02-18T21:16:26;105.82;;;72.97;;
44000;SDS011;29660;42.892;24.710;2023-02-18T21:21:29;183.00;;;120.80;;
44000;SDS011;29660;42.892;24.710;2023-02-18T21:26:31;145.20;;;96.90;;
44000;SDS011;29660;42.892;24.710;2023-02-18T21:31:34;117.68;;;78.28;;
44000;SDS011;29660;42.892;24.710;2023-02-18T21:36:37;120.65;;;79.53;;
44000;SDS011;29660;42.892;24.710;2023-02-18T21:41:39;80.50;;;51.78;;
44000;SDS011;29660;42.892;24.710;2023-02-18T21:46:42;85.93;;;59.20;;
44000;SDS011;29660;42.892;24.710;2023-02-18T21:51:46;95.22;;;62.75;;
44000;SDS011;29660;42.892;24.710;2023-02-18T21:56:58;93.45;;;61.63;;
44000;SDS011;29660;42.892;24.710;2023-02-18T22:02:02;82.88;;;60.47;;
44000;SDS011;29660;42.892;24.710;2023-02-18T22:07:05;77.32;;;55.08;;
44000;SDS011;29660;42.892;24.710;2023-02-18T22:12:07;84.35;;;56.78;;
44000;SDS011;29660;42.892;24.710;2023-02-18T22:17:10;85.03;;;56.08;;
44000;SDS011;29660;42.892;24.710;2023-02-18T22:22:12;85.07;;;57.97;;
44000;SDS011;29660;42.892;24.710;2023-02-18T22:27:14;83.85;;;55.33;;
44000;SDS011;29660;42.892;24.710;2023-02-18T22:32:16;92.18;;;61.70;;
44000;SDS011;29660;42.892;24.710;2023-02-18T22:37:18;76.03;;;52.03;;
44000;SDS011;29660;42.892;24.710;2023-02-18T22:42:19;70.57;;;50.30;;
44000;SDS011;29660;42.892;24.710;2023-02-18T22:47:21;159.38;;;95.88;;
44000;SDS011;29660;42.892;24.710;2023-02-18T22:52:24;113.30;;;73.97;;
44000;SDS011;29660;42.892;24.710;2023-02-18T22:57:26;122.07;;;80.13;;
44000;SDS011;29660;42.892;24.710;2023-02-18T23:02:28;138.57;;;91.40;;
44000;SDS011;29660;42.892;24.710;2023-02-18T23:07:30;168.13;;;108.43;;
44000;SDS011;29660;42.892;24.710;2023-02-18T23:12:32;137.95;;;89.65;;
44000;SDS011;29660;42.892;24.710;2023-02-18T23:17:34;114.82;;;75.65;;
44000;SDS011;29660;42.892;24.710;2023-02-18T23:22:36;116.68;;;73.88;;
44000;SDS011;29660;42.892;24.710;2023-02-18T23:27:38;104.45;;;66.53;;
44000;SDS011;29660;42.892;24.710;2023-02-18T23:32:58;96.40;;;62.58;;
44000;SDS011;29660;42.892;24.710;2023-02-18T23:38:00;82.68;;;52.03;;
44000;SDS011;29660;42.892;24.710;2023-02-18T23:43:05;78.90;;;52.63;;
44000;SDS011;29660;42.892;24.710;2023-02-18T23:48:07;69.88;;;46.00;;
44000;SDS011;29660;42.892;24.710;2023-02-18T23:53:09;72.70;;;46.42;;
44000;SDS011;29660;42.892;24.710;2023-02-18T23:58:11;68.30;;;43.40;;
